createdAt,value
2017-09-23T00:00:41.413Z,8.30
2017-09-23T00:03:08.150Z,8.30
2017-09-23T00:05:35.783Z,8.30
2017-09-23T00:08:02.130Z,8.30
2017-09-23T00:10:28.462Z,8.20
2017-09-23T00:12:54.862Z,8.30
2017-09-23T00:15:21.217Z,8.30
2017-09-23T00:17:47.538Z,8.30
2017-09-23T00:20:14.306Z,8.30
2017-09-23T00:22:41.417Z,8.30
2017-09-23T00:25:07.790Z,8.20
2017-09-23T00:27:34.886Z,8.20
2017-09-23T00:30:01.286Z,8.20
2017-09-23T00:32:27.670Z,8.30
2017-09-23T00:34:54.304Z,8.30
2017-09-23T00:37:21.180Z,8.30
2017-09-23T00:39:47.521Z,8.30
2017-09-23T00:42:15.367Z,8.30
2017-09-23T00:44:41.885Z,8.30
2017-09-23T00:47:08.244Z,8.20
2017-09-23T00:49:34.708Z,8.20
2017-09-23T00:52:01.228Z,8.10
2017-09-23T00:54:27.621Z,8.10
2017-09-23T00:56:54.020Z,8.10
2017-09-23T00:59:20.777Z,8.10
2017-09-23T01:01:47.130Z,8.00
2017-09-23T01:04:13.527Z,8.00
2017-09-23T01:06:39.912Z,8.00
2017-09-23T01:09:06.265Z,8.00
2017-09-23T01:11:32.692Z,8.00
2017-09-23T01:13:59.055Z,8.00
2017-09-23T01:16:26.203Z,8.00
2017-09-23T01:18:52.587Z,8.00
2017-09-23T01:21:19.367Z,8.00
2017-09-23T01:23:45.810Z,8.10
2017-09-23T01:26:12.170Z,8.20
2017-09-23T01:28:38.625Z,8.20
2017-09-23T01:31:05.765Z,8.30
2017-09-23T01:33:32.141Z,8.30
2017-09-23T01:35:59.316Z,8.40
2017-09-23T01:38:26.446Z,8.50
2017-09-23T01:40:53.557Z,8.40
2017-09-23T01:43:20.318Z,8.40
2017-09-23T01:45:46.650Z,8.40
2017-09-23T01:48:13.849Z,8.40
2017-09-23T01:50:41.973Z,8.40
2017-09-23T01:53:08.474Z,8.40
2017-09-23T01:55:34.877Z,8.40
2017-09-23T01:58:01.268Z,8.40
2017-09-23T02:00:27.620Z,8.30
2017-09-23T02:02:54.630Z,8.30
2017-09-23T02:05:20.962Z,8.20
2017-09-23T02:07:47.601Z,8.20
2017-09-23T02:10:13.955Z,8.10
2017-09-23T02:12:40.277Z,8.10
2017-09-23T02:15:07.393Z,8.10
2017-09-23T02:17:34.933Z,8.00
2017-09-23T02:20:02.080Z,8.00
2017-09-23T02:22:28.412Z,7.90
2017-09-23T02:24:55.089Z,7.90
2017-09-23T02:27:21.716Z,7.90
2017-09-23T02:29:48.271Z,8.00
2017-09-23T02:32:14.680Z,8.00
2017-09-23T02:34:41.800Z,8.00
2017-09-23T02:37:08.174Z,8.00
2017-09-23T02:39:35.290Z,8.00
2017-09-23T02:42:01.979Z,8.00
2017-09-23T02:44:28.312Z,8.00
2017-09-23T02:46:54.658Z,8.10
2017-09-23T02:49:21.088Z,8.10
2017-09-23T02:51:47.435Z,8.10
2017-09-23T02:54:13.828Z,8.10
2017-09-23T02:56:40.182Z,8.20
2017-09-23T02:59:06.539Z,8.20
2017-09-23T03:01:32.914Z,8.30
2017-09-23T03:03:59.621Z,8.30
2017-09-23T03:06:25.989Z,8.30
2017-09-23T03:08:52.334Z,8.30
2017-09-23T03:11:18.709Z,8.40
2017-09-23T03:13:45.081Z,8.40
2017-09-23T03:16:11.505Z,8.50
2017-09-23T03:18:37.884Z,8.50
2017-09-23T03:21:04.289Z,8.50
2017-09-23T03:23:30.575Z,8.60
2017-09-23T03:25:57.287Z,8.60
2017-09-23T03:28:24.187Z,8.60
2017-09-23T03:30:51.435Z,8.60
2017-09-23T03:33:17.779Z,8.50
2017-09-23T03:35:44.116Z,8.60
2017-09-23T03:38:10.473Z,8.60
2017-09-23T03:40:36.841Z,8.60
2017-09-23T03:43:03.565Z,8.60
2017-09-23T03:45:30.678Z,8.70
2017-09-23T03:47:57.035Z,8.70
2017-09-23T03:50:23.418Z,8.70
2017-09-23T03:52:49.804Z,8.80
2017-09-23T03:55:16.200Z,8.80
2017-09-23T03:57:42.549Z,8.80
2017-09-23T04:00:09.962Z,8.90
2017-09-23T04:02:36.310Z,8.90
2017-09-23T04:05:02.679Z,8.90
2017-09-23T04:07:29.824Z,8.90
2017-09-23T04:09:57.052Z,9.00
2017-09-23T04:12:23.443Z,8.90
2017-09-23T04:14:49.812Z,9.00
2017-09-23T04:17:19.013Z,9.00
2017-09-23T04:19:45.513Z,9.00
2017-09-23T04:22:11.908Z,9.00
2017-09-23T04:24:38.263Z,9.00
2017-09-23T04:27:04.618Z,9.00
2017-09-23T04:29:30.972Z,9.00
2017-09-23T04:31:57.355Z,9.00
2017-09-23T04:34:25.603Z,9.00
2017-09-23T04:36:52.883Z,8.90
2017-09-23T04:39:19.253Z,8.90
2017-09-23T04:41:46.348Z,8.90
2017-09-23T04:44:12.707Z,8.90
2017-09-23T04:46:39.073Z,8.90
2017-09-23T04:49:06.256Z,8.80
2017-09-23T04:51:32.617Z,8.80
2017-09-23T04:53:59.009Z,8.80
2017-09-23T04:56:25.334Z,8.90
2017-09-23T04:58:51.713Z,8.90
2017-09-23T05:01:18.128Z,8.90
2017-09-23T05:03:45.566Z,9.00
2017-09-23T05:06:11.932Z,9.00
2017-09-23T05:08:38.273Z,9.00
2017-09-23T05:11:05.390Z,9.00
2017-09-23T05:13:31.758Z,9.00
2017-09-23T05:15:58.843Z,9.00
2017-09-23T05:18:25.206Z,9.00
2017-09-23T05:20:51.853Z,9.00
2017-09-23T05:23:18.964Z,9.00
2017-09-23T05:25:45.294Z,9.00
2017-09-23T05:28:11.652Z,9.00
2017-09-23T05:30:38.064Z,9.00
2017-09-23T05:33:04.597Z,9.10
2017-09-23T05:35:30.936Z,9.10
2017-09-23T05:37:57.285Z,9.20
2017-09-23T05:40:23.610Z,9.30
2017-09-23T05:42:50.699Z,9.30
2017-09-23T05:45:18.807Z,9.30
2017-09-23T05:47:45.682Z,9.30
2017-09-23T05:50:12.863Z,9.30
2017-09-23T05:52:39.232Z,9.30
2017-09-23T05:55:05.988Z,9.40
2017-09-23T05:57:32.414Z,9.50
2017-09-23T05:59:58.848Z,9.50
2017-09-23T06:02:25.987Z,9.50
2017-09-23T06:04:53.091Z,9.60
2017-09-23T06:07:20.606Z,9.60
2017-09-23T06:09:47.004Z,9.60
2017-09-23T06:12:13.407Z,9.70
2017-09-23T06:14:39.782Z,9.70
2017-09-23T06:17:09.828Z,9.80
2017-09-23T06:19:37.501Z,9.80
2017-09-23T06:22:03.920Z,9.90
2017-09-23T06:24:30.728Z,9.90
2017-09-23T06:26:57.377Z,10.00
2017-09-23T06:29:23.872Z,10.10
2017-09-23T06:31:55.488Z,10.20
2017-09-23T06:34:21.876Z,10.30
2017-09-23T06:36:48.220Z,10.30
2017-09-23T06:39:15.688Z,10.40
2017-09-23T06:41:42.835Z,10.40
2017-09-23T06:44:09.213Z,10.40
2017-09-23T06:46:35.638Z,10.40
2017-09-23T06:49:02.101Z,10.40
2017-09-23T06:51:28.547Z,10.40
2017-09-23T06:53:55.682Z,10.50
2017-09-23T06:56:22.077Z,10.40
2017-09-23T06:58:48.455Z,10.50
2017-09-23T07:01:15.826Z,10.60
2017-09-23T07:03:42.245Z,10.50
2017-09-23T07:06:09.452Z,10.70
2017-09-23T07:08:36.040Z,10.70
2017-09-23T07:11:02.415Z,10.80
2017-09-23T07:13:28.830Z,11.00
2017-09-23T07:15:55.363Z,11.10
2017-09-23T07:18:22.138Z,11.30
2017-09-23T07:20:48.534Z,11.80
2017-09-23T07:23:14.967Z,12.20
2017-09-23T07:25:41.384Z,12.30
2017-09-23T07:28:07.744Z,12.40
2017-09-23T07:30:34.144Z,12.40
2017-09-23T07:33:00.516Z,12.40
2017-09-23T07:35:27.275Z,12.40
2017-09-23T07:37:54.412Z,12.30
2017-09-23T07:40:20.829Z,12.30
2017-09-23T07:42:47.192Z,12.40
2017-09-23T07:45:14.307Z,12.40
2017-09-23T07:47:40.713Z,12.40
2017-09-23T07:50:07.886Z,12.50
2017-09-23T07:52:34.266Z,12.50
2017-09-23T07:55:00.682Z,12.50
2017-09-23T07:57:27.111Z,12.60
2017-09-23T07:59:53.577Z,12.70
2017-09-23T08:02:19.955Z,12.70
2017-09-23T08:04:47.127Z,13.10
2017-09-23T08:07:13.531Z,13.10
2017-09-23T08:09:39.933Z,13.30
2017-09-23T08:12:06.322Z,13.50
2017-09-23T08:14:33.448Z,13.70
2017-09-23T08:16:59.850Z,13.70
2017-09-23T08:19:26.241Z,13.80
2017-09-23T08:21:53.015Z,13.80
2017-09-23T08:24:19.378Z,13.90
2017-09-23T08:26:45.720Z,14.00
2017-09-23T08:29:12.085Z,14.10
2017-09-23T08:31:38.432Z,14.20
2017-09-23T08:34:04.842Z,14.30
2017-09-23T08:36:31.169Z,14.30
2017-09-23T08:41:50.657Z,14.50
2017-09-23T08:44:17.065Z,14.50
2017-09-23T08:46:43.432Z,14.50
2017-09-23T08:49:10.106Z,14.60
2017-09-23T08:51:36.448Z,14.60
2017-09-23T08:54:02.833Z,14.70
2017-09-23T08:56:29.225Z,14.90
2017-09-23T08:58:55.594Z,15.00
2017-09-23T09:01:22.020Z,15.10
2017-09-23T09:03:48.394Z,15.20
2017-09-23T09:06:14.758Z,15.30
2017-09-23T09:08:41.123Z,15.30
2017-09-23T09:11:07.796Z,15.40
2017-09-23T09:13:34.175Z,15.50
2017-09-23T09:16:00.544Z,15.50
2017-09-23T09:18:26.923Z,15.70
2017-09-23T09:20:53.314Z,15.80
2017-09-23T09:23:19.791Z,16.00
2017-09-23T09:25:46.138Z,16.20
2017-09-23T09:28:12.534Z,16.30
2017-09-23T09:30:38.875Z,16.50
2017-09-23T09:33:05.291Z,16.70
2017-09-23T09:35:31.699Z,16.90
2017-09-23T09:38:05.319Z,17.00
2017-09-23T09:40:31.667Z,17.10
2017-09-23T09:42:58.112Z,17.30
2017-09-23T09:45:24.474Z,17.30
2017-09-23T09:47:50.935Z,17.30
2017-09-23T09:50:18.058Z,17.50
2017-09-23T09:52:44.471Z,17.40
2017-09-23T09:55:10.903Z,17.60
2017-09-23T09:57:37.254Z,17.80
2017-09-23T10:00:04.772Z,18.20
2017-09-23T10:02:31.146Z,18.10
2017-09-23T10:04:58.227Z,18.60
2017-09-23T10:07:24.635Z,18.50
2017-09-23T10:09:51.779Z,18.90
2017-09-23T10:12:18.245Z,18.90
2017-09-23T10:14:44.649Z,18.90
2017-09-23T10:17:11.829Z,19.10
2017-09-23T10:19:38.219Z,19.10
2017-09-23T10:22:05.666Z,19.90
2017-09-23T10:24:32.768Z,20.30
2017-09-23T10:26:59.143Z,20.30
2017-09-23T10:29:25.588Z,20.70
2017-09-23T10:31:52.680Z,21.20
2017-09-23T10:34:19.149Z,21.10
2017-09-23T10:36:46.353Z,21.50
2017-09-23T10:39:12.756Z,21.50
2017-09-23T10:41:39.251Z,21.60
2017-09-23T10:44:07.412Z,21.90
2017-09-23T10:46:33.790Z,21.90
2017-09-23T10:49:00.876Z,22.10
2017-09-23T10:51:27.244Z,22.10
2017-09-23T10:53:54.426Z,22.30
2017-09-23T10:56:20.824Z,22.30
2017-09-23T11:01:20.654Z,22.30
2017-09-23T11:03:47.810Z,22.30
2017-09-23T11:06:14.249Z,22.30
2017-09-23T11:08:40.603Z,22.50
2017-09-23T11:11:07.453Z,22.60
2017-09-23T11:13:34.386Z,22.70
2017-09-23T11:16:00.813Z,22.70
2017-09-23T11:18:27.245Z,22.70
2017-09-23T11:20:53.670Z,22.60
2017-09-23T11:23:20.098Z,22.60
2017-09-23T11:25:46.502Z,22.70
2017-09-23T11:28:13.198Z,22.90
2017-09-23T11:30:39.576Z,23.00
2017-09-23T11:33:06.730Z,23.40
2017-09-23T11:35:33.134Z,23.40
2017-09-23T11:38:00.327Z,23.70
2017-09-23T11:40:26.738Z,23.70
2017-09-23T11:42:53.133Z,23.70
2017-09-23T11:45:19.527Z,23.70
2017-09-23T11:47:45.943Z,23.80
2017-09-23T11:50:13.157Z,23.90
2017-09-23T11:52:40.327Z,23.90
2017-09-23T11:55:06.697Z,23.90
2017-09-23T11:57:33.493Z,24.00
2017-09-23T11:59:59.896Z,24.20
2017-09-23T12:02:27.018Z,24.40
2017-09-23T12:04:53.409Z,24.40
2017-09-23T12:07:19.816Z,24.40
2017-09-23T12:09:46.959Z,23.90
2017-09-23T12:12:14.145Z,23.70
2017-09-23T12:14:40.576Z,23.60
2017-09-23T12:17:07.005Z,23.70
2017-09-23T12:19:33.831Z,23.70
2017-09-23T12:22:00.982Z,24.20
2017-09-23T12:24:28.176Z,24.30
2017-09-23T12:26:54.668Z,24.30
2017-09-23T12:29:21.078Z,24.40
2017-09-23T12:31:47.573Z,24.50
2017-09-23T12:34:13.974Z,24.30
2017-09-23T12:36:40.435Z,24.10
2017-09-23T12:39:07.946Z,24.30
2017-09-23T12:41:34.776Z,24.30
2017-09-23T12:44:01.167Z,24.50
2017-09-23T12:46:27.565Z,24.70
2017-09-23T12:48:54.007Z,25.00
2017-09-23T12:51:20.394Z,25.10
2017-09-23T12:53:47.544Z,24.50
2017-09-23T12:56:13.970Z,24.50
2017-09-23T12:58:41.220Z,23.50
2017-09-23T13:01:08.392Z,23.30
2017-09-23T13:03:34.822Z,23.20
2017-09-23T13:06:01.247Z,23.20
2017-09-23T13:08:28.694Z,23.30
2017-09-23T13:10:55.093Z,23.30
2017-09-23T13:13:21.510Z,23.30
2017-09-23T13:15:47.977Z,23.50
2017-09-23T13:18:14.370Z,23.60
2017-09-23T13:20:40.779Z,23.80
2017-09-23T13:23:07.146Z,24.10
2017-09-23T13:25:34.301Z,23.80
2017-09-23T13:28:00.721Z,23.80
2017-09-23T13:30:27.496Z,23.50
2017-09-23T13:32:53.942Z,23.20
2017-09-23T13:35:20.335Z,22.90
2017-09-23T13:37:46.837Z,22.70
2017-09-23T13:40:13.198Z,22.50
2017-09-23T13:42:39.629Z,22.50
2017-09-23T13:45:06.039Z,22.50
2017-09-23T13:47:32.425Z,22.60
2017-09-23T13:49:59.574Z,22.70
2017-09-23T13:52:25.947Z,22.70
2017-09-23T13:54:52.384Z,22.60
2017-09-23T13:57:19.167Z,22.60
2017-09-23T13:59:46.306Z,22.50
2017-09-23T14:02:13.447Z,22.50
2017-09-23T14:04:39.846Z,22.40
2017-09-23T14:07:06.246Z,22.30
2017-09-23T14:09:32.636Z,22.20
2017-09-23T14:11:58.988Z,22.00
2017-09-23T14:14:26.166Z,21.70
2017-09-23T14:16:52.500Z,21.60
2017-09-23T14:19:18.896Z,21.50
2017-09-23T14:21:46.054Z,21.20
2017-09-23T14:24:12.448Z,21.20
2017-09-23T14:26:39.570Z,21.00
2017-09-23T14:29:05.959Z,21.00
2017-09-23T14:31:32.327Z,20.90
2017-09-23T14:33:58.662Z,20.80
2017-09-23T14:36:25.115Z,20.80
2017-09-23T14:38:51.443Z,20.60
2017-09-23T14:41:17.811Z,20.60
2017-09-23T14:43:44.190Z,20.50
2017-09-23T14:46:10.567Z,20.50
2017-09-23T14:48:36.925Z,20.40
2017-09-23T14:51:03.335Z,20.20
2017-09-23T14:53:29.682Z,20.00
2017-09-23T14:55:56.029Z,20.00
2017-09-23T14:58:22.702Z,19.90
2017-09-23T15:00:49.084Z,19.90
2017-09-23T15:03:15.450Z,20.00
2017-09-23T15:05:41.821Z,20.00
2017-09-23T15:08:08.156Z,19.90
2017-09-23T15:10:34.554Z,19.90
2017-09-23T15:13:01.690Z,19.90
2017-09-23T15:15:28.070Z,19.90
2017-09-23T15:17:54.523Z,19.80
2017-09-23T15:20:20.951Z,19.60
2017-09-23T15:22:47.312Z,19.70
2017-09-23T15:25:14.039Z,19.80
2017-09-23T15:27:40.431Z,20.00
2017-09-23T15:30:06.820Z,20.10
2017-09-23T15:32:33.229Z,20.00
2017-09-23T15:34:59.659Z,19.80
2017-09-23T15:37:26.143Z,19.60
2017-09-23T15:39:52.530Z,19.50
2017-09-23T15:42:18.955Z,19.20
2017-09-23T15:44:45.297Z,19.00
2017-09-23T15:47:12.744Z,18.60
2017-09-23T15:49:39.864Z,18.50
2017-09-23T15:52:06.232Z,18.50
2017-09-23T15:54:33.437Z,18.40
2017-09-23T15:56:59.828Z,18.30
2017-09-23T15:59:26.219Z,18.30
2017-09-23T16:01:52.596Z,18.20
2017-09-23T16:04:18.914Z,18.10
2017-09-23T16:06:46.060Z,17.90
2017-09-23T16:09:13.214Z,17.90
2017-09-23T16:11:40.358Z,17.90
2017-09-23T16:14:07.515Z,17.90
2017-09-23T16:16:33.888Z,17.80
2017-09-23T16:19:00.655Z,17.80
2017-09-23T16:21:27.059Z,17.80
2017-09-23T16:23:53.442Z,17.70
2017-09-23T16:26:20.692Z,17.50
2017-09-23T16:28:47.127Z,17.50
2017-09-23T16:31:13.529Z,17.40
2017-09-23T16:33:39.911Z,17.30
2017-09-23T16:36:06.325Z,17.20
2017-09-23T16:38:32.675Z,17.10
2017-09-23T16:40:59.071Z,17.10
2017-09-23T16:43:25.444Z,16.90
2017-09-23T16:45:51.801Z,16.80
2017-09-23T16:48:18.218Z,16.60
2017-09-23T16:50:44.620Z,16.50
2017-09-23T16:53:11.723Z,16.30
2017-09-23T16:55:38.085Z,16.30
2017-09-23T16:58:04.900Z,16.20
2017-09-23T17:00:31.285Z,16.20
2017-09-23T17:02:57.660Z,16.00
2017-09-23T17:05:24.800Z,15.80
2017-09-23T17:07:51.875Z,15.70
2017-09-23T17:10:18.277Z,15.70
2017-09-23T17:12:45.378Z,15.40
2017-09-23T17:15:11.825Z,15.40
2017-09-23T17:17:38.218Z,15.30
2017-09-23T17:20:04.590Z,15.20
2017-09-23T17:22:30.944Z,15.20
2017-09-23T17:24:58.077Z,15.10
2017-09-23T17:27:24.503Z,15.10
2017-09-23T17:29:51.159Z,15.10
2017-09-23T17:32:18.284Z,15.10
2017-09-23T17:34:44.694Z,15.10
2017-09-23T17:37:11.163Z,15.10
2017-09-23T17:39:37.558Z,15.10
2017-09-23T17:42:03.938Z,15.10
2017-09-23T17:44:31.532Z,15.10
2017-09-23T17:46:57.909Z,15.10
2017-09-23T17:49:24.347Z,15.10
2017-09-23T17:51:51.104Z,15.00
2017-09-23T17:54:17.459Z,15.00
2017-09-23T17:56:43.906Z,14.90
2017-09-23T17:59:10.297Z,14.90
2017-09-23T18:01:37.434Z,14.70
2017-09-23T18:04:04.577Z,14.60
2017-09-23T18:06:30.977Z,14.60
2017-09-23T18:08:57.349Z,14.60
2017-09-23T18:11:24.457Z,14.50
2017-09-23T18:13:50.888Z,14.50
2017-09-23T18:16:17.274Z,14.50
2017-09-23T18:18:43.973Z,14.50
2017-09-23T18:21:11.164Z,14.50
2017-09-23T18:23:37.642Z,14.50
2017-09-23T18:26:04.058Z,14.50
2017-09-23T18:28:30.779Z,14.40
2017-09-23T18:30:57.211Z,14.40
2017-09-23T18:33:24.320Z,14.40
2017-09-23T18:35:50.814Z,14.40
2017-09-23T18:38:17.236Z,14.40
2017-09-23T18:40:43.675Z,14.50
2017-09-23T18:43:10.059Z,14.50
2017-09-23T18:45:36.782Z,14.50
2017-09-23T18:48:03.150Z,14.50
2017-09-23T18:50:29.571Z,14.50
2017-09-23T18:52:55.951Z,14.50
2017-09-23T18:55:24.264Z,14.40
2017-09-23T18:57:50.938Z,14.40
2017-09-23T19:00:17.360Z,14.40
2017-09-23T19:02:44.237Z,14.30
2017-09-23T19:05:10.653Z,14.20
2017-09-23T19:07:37.093Z,14.20
2017-09-23T19:10:03.490Z,14.10
2017-09-23T19:12:30.174Z,14.00
2017-09-23T19:14:56.639Z,13.90
2017-09-23T19:17:23.646Z,13.80
2017-09-23T19:19:50.060Z,13.70
2017-09-23T19:22:16.547Z,13.70
2017-09-23T19:24:43.009Z,13.70
2017-09-23T19:27:09.397Z,13.70
2017-09-23T19:29:36.798Z,13.70
2017-09-23T19:32:04.282Z,13.70
2017-09-23T19:34:30.985Z,13.70
2017-09-23T19:36:57.467Z,13.70
2017-09-23T19:39:24.280Z,13.60
2017-09-23T19:41:50.754Z,13.60
2017-09-23T19:44:17.443Z,13.60
2017-09-23T19:46:43.911Z,13.60
2017-09-23T19:49:11.029Z,13.50
2017-09-23T19:51:37.818Z,13.50
2017-09-23T19:54:04.295Z,13.50
2017-09-23T19:56:30.677Z,13.50
2017-09-23T19:58:57.138Z,13.50
2017-09-23T20:01:23.610Z,13.50
2017-09-23T20:03:50.046Z,13.50
2017-09-23T20:06:16.487Z,13.50
2017-09-23T20:08:43.647Z,13.50
2017-09-23T20:11:10.121Z,13.50
2017-09-23T20:13:36.564Z,13.50
2017-09-23T20:16:04.268Z,13.50
2017-09-23T20:18:31.200Z,13.50
2017-09-23T20:20:58.376Z,13.40
2017-09-23T20:23:24.806Z,13.30
2017-09-23T20:25:51.227Z,13.30
2017-09-23T20:28:17.696Z,13.30
2017-09-23T20:30:44.909Z,13.30
2017-09-23T20:33:11.382Z,13.30
2017-09-23T20:35:37.802Z,13.30
2017-09-23T20:38:05.660Z,13.30
2017-09-23T20:40:32.292Z,13.20
2017-09-23T20:42:58.675Z,13.20
2017-09-23T20:45:25.035Z,13.10
2017-09-23T20:47:51.438Z,13.10
2017-09-23T20:50:17.844Z,13.10
2017-09-23T20:52:44.205Z,13.10
2017-09-23T20:55:12.569Z,13.00
2017-09-23T20:57:38.934Z,13.00
2017-09-23T21:00:05.380Z,12.90
2017-09-23T21:02:31.796Z,12.90
2017-09-23T21:04:58.934Z,12.80
2017-09-23T21:07:25.346Z,12.70
2017-09-23T21:09:51.766Z,12.70
2017-09-23T21:12:18.519Z,12.60
2017-09-23T21:14:44.891Z,12.60
2017-09-23T21:17:11.322Z,12.50
2017-09-23T21:19:37.723Z,12.40
2017-09-23T21:22:04.107Z,12.40
2017-09-23T21:24:30.493Z,12.30
2017-09-23T21:26:56.844Z,12.30
2017-09-23T21:29:24.146Z,12.20
2017-09-23T21:31:51.789Z,12.20
2017-09-23T21:34:21.479Z,12.10
2017-09-23T21:36:47.880Z,12.10
2017-09-23T21:39:14.679Z,12.00
2017-09-23T21:41:41.078Z,12.00
2017-09-23T21:44:07.462Z,12.00
2017-09-23T21:46:33.922Z,12.00
2017-09-23T21:49:00.304Z,12.00
2017-09-23T21:51:26.698Z,12.00
2017-09-23T21:53:53.102Z,12.00
2017-09-23T21:56:19.826Z,12.00
2017-09-23T21:58:46.225Z,12.00
2017-09-23T22:01:12.749Z,11.90
2017-09-23T22:03:39.175Z,11.90
2017-09-23T22:06:05.614Z,11.80
2017-09-23T22:08:32.021Z,11.70
2017-09-23T22:10:58.461Z,11.60
2017-09-23T22:13:24.885Z,11.50
2017-09-23T22:15:58.097Z,11.50
2017-09-23T22:18:24.520Z,11.50
2017-09-23T22:20:50.891Z,11.50
2017-09-23T22:23:17.635Z,11.40
2017-09-23T22:25:44.779Z,11.40
2017-09-23T22:28:11.167Z,11.30
2017-09-23T22:30:37.641Z,11.30
2017-09-23T22:33:04.000Z,11.30
2017-09-23T22:35:30.401Z,11.30
2017-09-23T22:37:57.583Z,11.40
2017-09-23T22:40:23.998Z,11.30
2017-09-23T22:42:50.455Z,11.40
2017-09-23T22:45:17.237Z,11.40
2017-09-23T22:47:44.408Z,11.50
2017-09-23T22:50:10.800Z,11.40
2017-09-23T22:52:37.925Z,11.40
2017-09-23T22:55:04.343Z,11.40
2017-09-23T22:57:30.841Z,11.30
2017-09-23T22:59:57.276Z,11.30
2017-09-23T23:02:23.696Z,11.20
2017-09-23T23:04:50.077Z,11.20
2017-09-23T23:07:16.858Z,11.00
2017-09-23T23:09:44.006Z,10.90
2017-09-23T23:12:11.230Z,10.80
2017-09-23T23:14:37.597Z,10.90
2017-09-23T23:17:04.701Z,10.80
2017-09-23T23:19:31.156Z,10.70
2017-09-23T23:21:57.552Z,10.70
2017-09-23T23:24:23.965Z,10.60
2017-09-23T23:26:50.358Z,10.60
2017-09-23T23:29:17.910Z,10.60
2017-09-23T23:31:44.280Z,10.60
2017-09-23T23:34:10.670Z,10.60
2017-09-23T23:36:37.944Z,10.50
2017-09-23T23:39:04.330Z,10.50
2017-09-23T23:41:30.731Z,10.50
2017-09-23T23:43:57.171Z,10.50
2017-09-23T23:46:23.581Z,10.50
2017-09-23T23:48:49.926Z,10.40
2017-09-23T23:51:16.291Z,10.40
2017-09-23T23:53:42.688Z,10.40
2017-09-23T23:56:09.368Z,10.30
2017-09-23T23:58:35.736Z,10.30
